Promontory, Utah
Current Conditions -  °F | °C
As of 8:55 PM on Wednesday 22 Oct 2014 (Local Time) from KBMC Reporting Station
Clear Clear  
Wind Chill: 47°   Ceiling: Unl
Heat Index: 47°   Visibility: 10mi
Dew Point: 32°   Wind: 3mph
Humidity: 56%   Direction: 130°SE
Pressure: 30.18"   Gusts: NA
Location:  41.5038°N, 112.48°W
Report Text: KBMC 230255Z AUTO 13003KT 10SM CLR 09/00 A3018 RMK AO1 T00850001
Loading
Personal Weather Stations






























Interactive Weather Map New forecast layout! Learn more

10-Day Weather Forecast

Advertisements
Track Severe Weather on mobile